Annapolis, MD (21403)

11:38 AM EST on March 06, 2015 (GMT -0500)
Bay Ridge | Change Station
CLOSE
Current Station
Personal Weather Station
Location: Annapolis, MD
Elevation: 39 ft
Nearby Weather Stations

Elev 39 ft 38.94 °N, 76.46 °W | Updated 20 seconds ago

Clear
Clear
30.7 °F
Feels Like 31 °F
N
2.2
Wind Variable Wind from East
Gusts 7.6 mph

Today
High -- | Low -- °F
--% Chance of Precip.
Yesterday
High -- | Low -- °F
Precip. -- in
6:31 AM 6:03 PM
Full, 99% visible
Pressure 30.61 in
Visibility 10.0 miles
Clouds Clear
Windchill 31 °F
Dew Point -3 °F
Humidity 23%
Rainfall in
Snow Depth Not available.
UV 6 out of 12
Pollen 1.10 out of 12
Air Quality Not available.
Flu Activity Not available.
METAR KFME 061627Z AUTO 34005KT 10SM CLR M06/M15 A3061 RMK AO1

More Conditions Fewer Conditions

Pressure 30.61 in
Visibility 10.0 miles
Clouds Clear
Windchill 31 °F
Dew Point -3 °F
Humidity 23%
Rainfall in
Snow Depth Not available.
UV 6 out of 12
Pollen 1.10 out of 12
Air Quality Not available.
Flu Activity Not available.
METAR KFME 061627Z AUTO 34005KT 10SM CLR M06/M15 A3061 RMK AO1

More Conditions Fewer Conditions

10-Day Weather Forecast

Almanac

Astronomy

Mar. 06, 2015 Rise Set
Actual Time
Civil Twilight
Nautical Twilight
Astronomical Twilight
Moon
Length of Visible Light
Length of Day
Tomorrow will be .
, % of the Moon is Illuminated

Today's Extremes

State Highs State Lows

Community

WunderPhotos

Upload Photos

1,803,334 photos uploaded!

WunderBlogs® & News

Nearby

Air Quality

  Air Quality AQ Index Pollutant
Not available.

Snow Depth

Station Depth Elevation

Earthquake Activity

City Distance Mag. Time & Date
Minimum magnitude displayed is 2.5.

Coastal Water Temperatures

Place Temperature

Nearby Weather Stations